createdAt,value
2023-04-25T00:01:25.789Z,100
2023-04-25T00:11:27.805Z,100
2023-04-25T00:21:29.546Z,100
2023-04-25T00:31:31.544Z,100
2023-04-25T00:41:34.028Z,100
2023-04-25T00:51:36.065Z,100
2023-04-25T01:01:38.353Z,100
2023-04-25T01:11:40.142Z,100
2023-04-25T01:21:42.640Z,100
2023-04-25T01:31:44.966Z,100
2023-04-25T01:41:47.146Z,100
2023-04-25T01:51:49.492Z,100
2023-04-25T02:01:51.606Z,100
2023-04-25T02:11:54.002Z,100
2023-04-25T02:21:56.418Z,100
2023-04-25T02:31:58.345Z,100
2023-04-25T02:42:00.343Z,100
2023-04-25T02:52:02.378Z,100
2023-04-25T03:02:04.277Z,100
2023-04-25T03:12:06.023Z,100
2023-04-25T03:22:08.120Z,100
2023-04-25T03:32:10.859Z,100
2023-04-25T03:42:12.519Z,100
2023-04-25T03:52:14.231Z,100
2023-04-25T04:02:16.567Z,100
2023-04-25T04:12:18.784Z,100
2023-04-25T04:22:20.708Z,100
2023-04-25T04:32:22.864Z,100
2023-04-25T04:42:24.889Z,100
2023-04-25T04:52:26.754Z,100
2023-04-25T05:12:31.306Z,100
2023-04-25T05:22:33.543Z,100
2023-04-25T05:32:35.979Z,100
2023-04-25T05:42:37.902Z,100
2023-04-25T05:52:40.374Z,100
2023-04-25T06:02:42.335Z,100
2023-04-25T06:12:44.832Z,100
2023-04-25T06:22:46.971Z,100
2023-04-25T06:32:49.470Z,100
2023-04-25T06:42:52.098Z,100
2023-04-25T06:52:53.801Z,100
2023-04-25T07:12:58.263Z,100
2023-04-25T07:23:00.832Z,100
2023-04-25T07:33:02.816Z,100
2023-04-25T07:43:04.571Z,100
2023-04-25T07:53:06.584Z,99
2023-04-25T08:03:08.988Z,95
2023-04-25T08:13:11.131Z,89
2023-04-25T08:23:12.869Z,85
2023-04-25T08:33:14.695Z,78
2023-04-25T08:43:16.792Z,78
2023-04-25T08:53:19.709Z,79
2023-04-25T09:03:21.271Z,80
2023-04-25T09:13:22.864Z,86
2023-04-25T09:23:24.713Z,84
2023-04-25T09:33:26.733Z,79
2023-04-25T09:43:28.990Z,68
2023-04-25T09:53:30.786Z,67
2023-04-25T10:03:32.732Z,68
2023-04-25T10:13:34.383Z,67
2023-04-25T10:23:36.250Z,68
2023-04-25T10:33:38.205Z,70
2023-04-25T10:43:40.810Z,75
2023-04-25T10:53:43.303Z,76
2023-04-25T11:13:47.597Z,64
2023-04-25T11:23:49.717Z,62
2023-04-25T11:33:52.188Z,59
2023-04-25T11:43:54.814Z,56
2023-04-25T11:53:56.968Z,55
2023-04-25T12:03:59.328Z,53
2023-04-25T12:14:01.020Z,56
2023-04-25T12:24:03.306Z,50
2023-04-25T12:34:05.426Z,55
2023-04-25T12:44:07.850Z,60
2023-04-25T12:54:09.666Z,63
2023-04-25T13:14:14.359Z,58
2023-04-25T13:24:16.826Z,78
2023-04-25T13:34:19.085Z,80
2023-04-25T13:44:21.088Z,79
2023-04-25T14:04:25.121Z,69
2023-04-25T14:14:27.379Z,57
2023-04-25T16:04:51.205Z,71
2023-04-25T16:24:54.993Z,66
2023-04-25T16:44:59.783Z,67
2023-04-25T16:55:02.467Z,65
2023-04-25T17:05:04.396Z,63
2023-04-25T17:25:08.498Z,61
2023-04-25T17:45:12.669Z,67
2023-04-25T17:55:14.819Z,70
2023-04-25T18:05:17.190Z,71
2023-04-25T18:15:19.554Z,72
2023-04-25T18:25:21.805Z,73
2023-04-25T18:35:23.604Z,75
2023-04-25T18:45:25.554Z,74
2023-04-25T18:55:27.535Z,76
2023-04-25T19:05:29.648Z,76
2023-04-25T19:15:31.747Z,77
2023-04-25T19:35:36.953Z,76
2023-04-25T19:45:38.924Z,79
2023-04-25T19:55:40.864Z,79
2023-04-25T20:05:42.703Z,83
2023-04-25T20:15:44.518Z,86
2023-04-25T20:25:46.774Z,88
2023-04-25T20:35:49.247Z,89
2023-04-25T20:55:53.042Z,90
2023-04-25T21:06:05.039Z,91
2023-04-25T21:16:07.578Z,92
2023-04-25T21:26:10.029Z,92
2023-04-25T21:36:11.906Z,93
2023-04-25T21:46:22.020Z,94
2023-04-25T21:56:16.869Z,96
2023-04-25T22:06:19.129Z,97
2023-04-25T22:16:21.324Z,98
2023-04-25T22:26:23.193Z,99
2023-04-25T22:36:25.508Z,100
2023-04-25T22:46:28.017Z,100
2023-04-25T22:56:30.207Z,100
2023-04-25T23:16:35.235Z,100
2023-04-25T23:26:37.457Z,100
2023-04-25T23:36:39.307Z,100
2023-04-25T23:46:41.479Z,100
2023-04-25T23:56:43.317Z,100
